Himrod, New York
Current Conditions -  °F | °C
As of 9:53 AM on Wednesday 22 Oct 2014 (Local Time) from KPEO Reporting Station
Haze Haze  
Wind Chill: 41°   Ceiling: 500
Heat Index: 46°   Visibility: 6mi
Dew Point: 44°   Wind: 10mph
Humidity: 93%   Direction: 340°NNW
Pressure: 30.15"   Gusts: NA
Location:  42.59°N, 76.96°W
Report Text: KPEO 221353Z AUTO 34009KT 6SM BR OVC005 08/07 A3015 RMK AO2 SLP214 T00780067
Loading
Personal Weather Stations






























Interactive Weather Map New forecast layout! Learn more

10-Day Weather Forecast

Advertisements
Track Severe Weather on mobile